sensor_id;sensor_type;location;lat;lon;timestamp;P1;durP1;ratioP1;P2;durP2;ratioP2
42846;SDS011;28495;49.916;14.536;2023-04-25T00:02:51;1.98;;;1.40;;
42846;SDS011;28495;49.916;14.536;2023-04-25T00:08:13;2.45;;;1.27;;
42846;SDS011;28495;49.916;14.536;2023-04-25T00:13:34;1.40;;;1.25;;
42846;SDS011;28495;49.916;14.536;2023-04-25T00:18:54;2.22;;;1.30;;
42846;SDS011;28495;49.916;14.536;2023-04-25T00:24:15;1.20;;;1.10;;
42846;SDS011;28495;49.916;14.536;2023-04-25T00:29:36;1.65;;;1.30;;
42846;SDS011;28495;49.916;14.536;2023-04-25T00:34:57;1.60;;;1.33;;
42846;SDS011;28495;49.916;14.536;2023-04-25T00:40:18;2.33;;;1.50;;
42846;SDS011;28495;49.916;14.536;2023-04-25T00:45:39;1.65;;;1.40;;
42846;SDS011;28495;49.916;14.536;2023-04-25T00:51:00;2.50;;;1.75;;
42846;SDS011;28495;49.916;14.536;2023-04-25T00:56:21;2.30;;;1.67;;
42846;SDS011;28495;49.916;14.536;2023-04-25T01:01:43;2.60;;;1.50;;
42846;SDS011;28495;49.916;14.536;2023-04-25T01:07:04;3.45;;;2.35;;
42846;SDS011;28495;49.916;14.536;2023-04-25T01:12:25;2.22;;;1.75;;
42846;SDS011;28495;49.916;14.536;2023-04-25T01:17:46;2.05;;;1.83;;
42846;SDS011;28495;49.916;14.536;2023-04-25T01:23:07;1.85;;;1.50;;
42846;SDS011;28495;49.916;14.536;2023-04-25T01:28:28;1.95;;;1.50;;
42846;SDS011;28495;49.916;14.536;2023-04-25T01:33:50;2.22;;;1.70;;
42846;SDS011;28495;49.916;14.536;2023-04-25T01:39:11;2.30;;;1.83;;
42846;SDS011;28495;49.916;14.536;2023-04-25T01:44:32;6.72;;;1.98;;
42846;SDS011;28495;49.916;14.536;2023-04-25T01:49:53;2.72;;;1.67;;
42846;SDS011;28495;49.916;14.536;2023-04-25T01:55:14;5.68;;;1.75;;
42846;SDS011;28495;49.916;14.536;2023-04-25T02:01:04;3.13;;;2.30;;
42846;SDS011;28495;49.916;14.536;2023-04-25T02:06:33;2.38;;;2.15;;
42846;SDS011;28495;49.916;14.536;2023-04-25T02:11:54;3.00;;;2.08;;
42846;SDS011;28495;49.916;14.536;2023-04-25T02:17:34;2.88;;;1.88;;
42846;SDS011;28495;49.916;14.536;2023-04-25T02:22:54;2.03;;;1.77;;
42846;SDS011;28495;49.916;14.536;2023-04-25T02:28:15;2.65;;;2.10;;
42846;SDS011;28495;49.916;14.536;2023-04-25T02:33:36;3.67;;;2.10;;
42846;SDS011;28495;49.916;14.536;2023-04-25T02:38:58;4.20;;;1.88;;
42846;SDS011;28495;49.916;14.536;2023-04-25T02:44:20;3.08;;;1.85;;
42846;SDS011;28495;49.916;14.536;2023-04-25T02:49:41;3.92;;;2.05;;
42846;SDS011;28495;49.916;14.536;2023-04-25T02:55:02;2.97;;;2.03;;
42846;SDS011;28495;49.916;14.536;2023-04-25T03:00:24;2.70;;;1.60;;
42846;SDS011;28495;49.916;14.536;2023-04-25T03:05:46;2.50;;;1.80;;
42846;SDS011;28495;49.916;14.536;2023-04-25T03:11:08;2.58;;;1.73;;
42846;SDS011;28495;49.916;14.536;2023-04-25T03:16:28;3.40;;;1.83;;
42846;SDS011;28495;49.916;14.536;2023-04-25T03:21:50;2.53;;;1.95;;
42846;SDS011;28495;49.916;14.536;2023-04-25T03:27:11;2.45;;;1.77;;
42846;SDS011;28495;49.916;14.536;2023-04-25T03:32:31;5.07;;;2.33;;
42846;SDS011;28495;49.916;14.536;2023-04-25T03:37:52;3.13;;;2.03;;
42846;SDS011;28495;49.916;14.536;2023-04-25T03:43:18;3.25;;;2.00;;
42846;SDS011;28495;49.916;14.536;2023-04-25T03:48:46;3.38;;;2.05;;
42846;SDS011;28495;49.916;14.536;2023-04-25T03:54:13;3.60;;;2.25;;
42846;SDS011;28495;49.916;14.536;2023-04-25T03:59:49;2.60;;;2.25;;
42846;SDS011;28495;49.916;14.536;2023-04-25T04:05:11;5.72;;;2.25;;
42846;SDS011;28495;49.916;14.536;2023-04-25T04:10:38;4.60;;;2.22;;
42846;SDS011;28495;49.916;14.536;2023-04-25T04:16:06;2.83;;;2.00;;
42846;SDS011;28495;49.916;14.536;2023-04-25T04:21:28;3.28;;;2.30;;
42846;SDS011;28495;49.916;14.536;2023-04-25T04:26:49;3.85;;;2.28;;
42846;SDS011;28495;49.916;14.536;2023-04-25T04:32:37;4.68;;;2.13;;
42846;SDS011;28495;49.916;14.536;2023-04-25T04:37:58;5.10;;;2.70;;
42846;SDS011;28495;49.916;14.536;2023-04-25T04:43:24;3.00;;;2.60;;
42846;SDS011;28495;49.916;14.536;2023-04-25T04:49:06;2.65;;;2.28;;
42846;SDS011;28495;49.916;14.536;2023-04-25T04:54:50;2.10;;;1.90;;
42846;SDS011;28495;49.916;14.536;2023-04-25T05:00:27;2.78;;;2.35;;
42846;SDS011;28495;49.916;14.536;2023-04-25T05:06:08;2.22;;;1.80;;
42846;SDS011;28495;49.916;14.536;2023-04-25T05:11:50;3.88;;;1.85;;
42846;SDS011;28495;49.916;14.536;2023-04-25T05:17:39;3.80;;;2.05;;
42846;SDS011;28495;49.916;14.536;2023-04-25T05:23:21;5.32;;;2.45;;
42846;SDS011;28495;49.916;14.536;2023-04-25T05:28:41;3.22;;;2.55;;
42846;SDS011;28495;49.916;14.536;2023-04-25T05:34:08;3.47;;;2.63;;
42846;SDS011;28495;49.916;14.536;2023-04-25T05:39:42;3.90;;;2.60;;
42846;SDS011;28495;49.916;14.536;2023-04-25T05:45:22;4.90;;;2.70;;
42846;SDS011;28495;49.916;14.536;2023-04-25T05:50:58;3.63;;;2.65;;
42846;SDS011;28495;49.916;14.536;2023-04-25T05:56:51;5.50;;;2.75;;
42846;SDS011;28495;49.916;14.536;2023-04-25T06:02:12;4.50;;;3.10;;
42846;SDS011;28495;49.916;14.536;2023-04-25T06:07:33;4.07;;;3.05;;
42846;SDS011;28495;49.916;14.536;2023-04-25T06:12:56;5.43;;;2.42;;
42846;SDS011;28495;49.916;14.536;2023-04-25T06:18:18;4.47;;;3.30;;
42846;SDS011;28495;49.916;14.536;2023-04-25T06:23:39;3.08;;;2.50;;
42846;SDS011;28495;49.916;14.536;2023-04-25T06:29:02;5.57;;;3.33;;
42846;SDS011;28495;49.916;14.536;2023-04-25T06:34:23;4.53;;;3.28;;
42846;SDS011;28495;49.916;14.536;2023-04-25T06:39:45;5.63;;;3.25;;
42846;SDS011;28495;49.916;14.536;2023-04-25T06:45:08;4.57;;;3.28;;
42846;SDS011;28495;49.916;14.536;2023-04-25T06:50:29;4.20;;;2.97;;
42846;SDS011;28495;49.916;14.536;2023-04-25T06:55:50;5.30;;;2.92;;
42846;SDS011;28495;49.916;14.536;2023-04-25T07:01:14;5.95;;;3.42;;
42846;SDS011;28495;49.916;14.536;2023-04-25T07:06:36;3.90;;;2.97;;
42846;SDS011;28495;49.916;14.536;2023-04-25T07:12:03;5.93;;;3.25;;
42846;SDS011;28495;49.916;14.536;2023-04-25T07:17:26;3.25;;;2.90;;
42846;SDS011;28495;49.916;14.536;2023-04-25T07:22:47;2.67;;;2.33;;
42846;SDS011;28495;49.916;14.536;2023-04-25T07:28:08;5.07;;;2.88;;
42846;SDS011;28495;49.916;14.536;2023-04-25T07:33:29;6.97;;;4.10;;
42846;SDS011;28495;49.916;14.536;2023-04-25T07:38:50;5.90;;;4.13;;
42846;SDS011;28495;49.916;14.536;2023-04-25T07:44:11;5.07;;;3.53;;
42846;SDS011;28495;49.916;14.536;2023-04-25T07:49:34;4.40;;;3.15;;
42846;SDS011;28495;49.916;14.536;2023-04-25T07:54:55;4.30;;;3.38;;
42846;SDS011;28495;49.916;14.536;2023-04-25T08:00:28;6.63;;;3.28;;
42846;SDS011;28495;49.916;14.536;2023-04-25T08:06:09;4.55;;;3.03;;
42846;SDS011;28495;49.916;14.536;2023-04-25T08:11:42;4.07;;;3.08;;
42846;SDS011;28495;49.916;14.536;2023-04-25T08:17:07;4.65;;;2.78;;
42846;SDS011;28495;49.916;14.536;2023-04-25T08:22:33;4.60;;;2.97;;
42846;SDS011;28495;49.916;14.536;2023-04-25T08:28:18;4.53;;;2.42;;
42846;SDS011;28495;49.916;14.536;2023-04-25T08:33:40;5.10;;;2.53;;
42846;SDS011;28495;49.916;14.536;2023-04-25T08:39:26;4.60;;;2.90;;
42846;SDS011;28495;49.916;14.536;2023-04-25T08:45:10;3.33;;;2.50;;
42846;SDS011;28495;49.916;14.536;2023-04-25T08:50:34;3.38;;;1.67;;
42846;SDS011;28495;49.916;14.536;2023-04-25T08:55:55;2.38;;;2.03;;
42846;SDS011;28495;49.916;14.536;2023-04-25T09:01:17;3.20;;;2.30;;
42846;SDS011;28495;49.916;14.536;2023-04-25T09:06:44;1.83;;;1.63;;
42846;SDS011;28495;49.916;14.536;2023-04-25T09:12:04;2.83;;;2.00;;
42846;SDS011;28495;49.916;14.536;2023-04-25T09:17:26;3.05;;;2.75;;
42846;SDS011;28495;49.916;14.536;2023-04-25T09:22:49;5.13;;;2.35;;
42846;SDS011;28495;49.916;14.536;2023-04-25T09:28:10;5.80;;;2.67;;
42846;SDS011;28495;49.916;14.536;2023-04-25T09:33:32;2.38;;;2.15;;
42846;SDS011;28495;49.916;14.536;2023-04-25T09:38:57;2.63;;;2.22;;
42846;SDS011;28495;49.916;14.536;2023-04-25T09:44:30;2.53;;;2.15;;
42846;SDS011;28495;49.916;14.536;2023-04-25T09:49:52;3.80;;;2.38;;
42846;SDS011;28495;49.916;14.536;2023-04-25T09:55:14;2.10;;;1.70;;
42846;SDS011;28495;49.916;14.536;2023-04-25T10:00:37;2.22;;;1.98;;
42846;SDS011;28495;49.916;14.536;2023-04-25T10:06:12;1.80;;;1.70;;
42846;SDS011;28495;49.916;14.536;2023-04-25T10:11:38;2.75;;;1.85;;
42846;SDS011;28495;49.916;14.536;2023-04-25T10:17:00;3.53;;;1.80;;
42846;SDS011;28495;49.916;14.536;2023-04-25T10:22:38;2.35;;;2.05;;
42846;SDS011;28495;49.916;14.536;2023-04-25T10:28:02;5.03;;;2.67;;
42846;SDS011;28495;49.916;14.536;2023-04-25T10:39:02;5.03;;;3.42;;
42846;SDS011;28495;49.916;14.536;2023-04-25T10:44:28;4.85;;;3.22;;
42846;SDS011;28495;49.916;14.536;2023-04-25T10:49:50;3.85;;;3.17;;
42846;SDS011;28495;49.916;14.536;2023-04-25T10:55:11;5.18;;;2.85;;
42846;SDS011;28495;49.916;14.536;2023-04-25T11:00:32;6.25;;;3.10;;
42846;SDS011;28495;49.916;14.536;2023-04-25T11:06:22;4.53;;;3.03;;
42846;SDS011;28495;49.916;14.536;2023-04-25T11:11:53;2.50;;;2.30;;
42846;SDS011;28495;49.916;14.536;2023-04-25T11:17:15;2.92;;;2.58;;
42846;SDS011;28495;49.916;14.536;2023-04-25T11:22:36;1.60;;;1.50;;
42846;SDS011;28495;49.916;14.536;2023-04-25T11:27:58;5.22;;;2.28;;
42846;SDS011;28495;49.916;14.536;2023-04-25T11:33:25;2.55;;;1.38;;
42846;SDS011;28495;49.916;14.536;2023-04-25T11:38:47;2.55;;;2.00;;
42846;SDS011;28495;49.916;14.536;2023-04-25T11:44:08;3.00;;;1.85;;
42846;SDS011;28495;49.916;14.536;2023-04-25T11:49:32;2.08;;;1.77;;
42846;SDS011;28495;49.916;14.536;2023-04-25T11:54:53;1.70;;;1.60;;
42846;SDS011;28495;49.916;14.536;2023-04-25T12:00:15;2.80;;;2.38;;
42846;SDS011;28495;49.916;14.536;2023-04-25T12:05:38;4.05;;;2.67;;
42846;SDS011;28495;49.916;14.536;2023-04-25T12:11:00;3.03;;;2.58;;
42846;SDS011;28495;49.916;14.536;2023-04-25T12:16:22;3.88;;;2.90;;
42846;SDS011;28495;49.916;14.536;2023-04-25T12:21:43;4.28;;;3.20;;
42846;SDS011;28495;49.916;14.536;2023-04-25T12:27:17;3.55;;;3.25;;
42846;SDS011;28495;49.916;14.536;2023-04-25T12:32:39;3.88;;;3.22;;
42846;SDS011;28495;49.916;14.536;2023-04-25T12:38:00;4.65;;;2.95;;
42846;SDS011;28495;49.916;14.536;2023-04-25T12:43:21;3.40;;;2.65;;
42846;SDS011;28495;49.916;14.536;2023-04-25T12:48:42;3.13;;;2.35;;
42846;SDS011;28495;49.916;14.536;2023-04-25T12:54:04;3.22;;;2.05;;
42846;SDS011;28495;49.916;14.536;2023-04-25T12:59:26;1.70;;;1.55;;
42846;SDS011;28495;49.916;14.536;2023-04-25T13:04:46;2.70;;;1.77;;
42846;SDS011;28495;49.916;14.536;2023-04-25T13:10:08;3.08;;;1.70;;
42846;SDS011;28495;49.916;14.536;2023-04-25T13:15:28;1.92;;;1.27;;
42846;SDS011;28495;49.916;14.536;2023-04-25T13:20:49;2.38;;;1.48;;
42846;SDS011;28495;49.916;14.536;2023-04-25T13:26:10;4.15;;;1.60;;
42846;SDS011;28495;49.916;14.536;2023-04-25T13:31:31;2.70;;;1.70;;
42846;SDS011;28495;49.916;14.536;2023-04-25T13:36:52;2.25;;;1.15;;
42846;SDS011;28495;49.916;14.536;2023-04-25T13:42:13;2.78;;;1.90;;
42846;SDS011;28495;49.916;14.536;2023-04-25T13:47:34;2.20;;;1.80;;
42846;SDS011;28495;49.916;14.536;2023-04-25T13:52:55;2.75;;;1.70;;
42846;SDS011;28495;49.916;14.536;2023-04-25T13:58:16;3.75;;;2.08;;
42846;SDS011;28495;49.916;14.536;2023-04-25T14:03:37;4.05;;;2.20;;
42846;SDS011;28495;49.916;14.536;2023-04-25T14:08:58;3.75;;;2.05;;
42846;SDS011;28495;49.916;14.536;2023-04-25T14:14:22;3.75;;;2.00;;
42846;SDS011;28495;49.916;14.536;2023-04-25T14:19:43;3.60;;;2.10;;
42846;SDS011;28495;49.916;14.536;2023-04-25T14:25:05;2.65;;;2.42;;
42846;SDS011;28495;49.916;14.536;2023-04-25T14:30:27;3.97;;;2.15;;
42846;SDS011;28495;49.916;14.536;2023-04-25T14:35:47;3.17;;;2.03;;
42846;SDS011;28495;49.916;14.536;2023-04-25T14:41:09;3.70;;;1.52;;
42846;SDS011;28495;49.916;14.536;2023-04-25T14:46:30;3.53;;;1.63;;
42846;SDS011;28495;49.916;14.536;2023-04-25T14:51:51;1.77;;;1.67;;
42846;SDS011;28495;49.916;14.536;2023-04-25T14:57:12;3.42;;;1.52;;
42846;SDS011;28495;49.916;14.536;2023-04-25T15:02:33;1.92;;;1.50;;
42846;SDS011;28495;49.916;14.536;2023-04-25T15:07:55;1.60;;;1.38;;
42846;SDS011;28495;49.916;14.536;2023-04-25T15:13:17;3.75;;;0.95;;
42846;SDS011;28495;49.916;14.536;2023-04-25T15:18:39;5.70;;;1.40;;
42846;SDS011;28495;49.916;14.536;2023-04-25T15:24:01;2.42;;;1.40;;
42846;SDS011;28495;49.916;14.536;2023-04-25T15:29:21;1.70;;;1.60;;
42846;SDS011;28495;49.916;14.536;2023-04-25T15:34:42;1.50;;;1.35;;
42846;SDS011;28495;49.916;14.536;2023-04-25T15:40:04;1.55;;;1.10;;
42846;SDS011;28495;49.916;14.536;2023-04-25T15:45:29;1.52;;;1.20;;
42846;SDS011;28495;49.916;14.536;2023-04-25T15:50:51;2.45;;;1.85;;
42846;SDS011;28495;49.916;14.536;2023-04-25T15:56:12;2.33;;;1.80;;
42846;SDS011;28495;49.916;14.536;2023-04-25T16:01:33;2.05;;;1.55;;
42846;SDS011;28495;49.916;14.536;2023-04-25T16:06:54;3.40;;;2.17;;
42846;SDS011;28495;49.916;14.536;2023-04-25T16:12:14;2.08;;;1.85;;
42846;SDS011;28495;49.916;14.536;2023-04-25T16:17:35;2.35;;;2.10;;
42846;SDS011;28495;49.916;14.536;2023-04-25T16:22:58;4.25;;;2.47;;
42846;SDS011;28495;49.916;14.536;2023-04-25T16:28:19;3.25;;;2.28;;
42846;SDS011;28495;49.916;14.536;2023-04-25T16:33:40;5.28;;;3.00;;
42846;SDS011;28495;49.916;14.536;2023-04-25T16:39:02;4.07;;;3.20;;
42846;SDS011;28495;49.916;14.536;2023-04-25T16:44:23;3.65;;;3.00;;
42846;SDS011;28495;49.916;14.536;2023-04-25T16:49:44;6.45;;;2.75;;
42846;SDS011;28495;49.916;14.536;2023-04-25T16:55:05;4.35;;;2.90;;
42846;SDS011;28495;49.916;14.536;2023-04-25T17:00:29;3.55;;;2.45;;
42846;SDS011;28495;49.916;14.536;2023-04-25T17:05:52;3.85;;;2.67;;
42846;SDS011;28495;49.916;14.536;2023-04-25T17:11:15;2.50;;;2.22;;
42846;SDS011;28495;49.916;14.536;2023-04-25T17:16:37;3.13;;;1.90;;
42846;SDS011;28495;49.916;14.536;2023-04-25T17:21:59;5.82;;;2.55;;
42846;SDS011;28495;49.916;14.536;2023-04-25T17:27:19;4.80;;;2.50;;
42846;SDS011;28495;49.916;14.536;2023-04-25T17:32:40;1.60;;;1.50;;
42846;SDS011;28495;49.916;14.536;2023-04-25T17:38:01;4.05;;;2.42;;
42846;SDS011;28495;49.916;14.536;2023-04-25T17:43:23;4.20;;;2.40;;
42846;SDS011;28495;49.916;14.536;2023-04-25T17:48:45;5.38;;;2.25;;
42846;SDS011;28495;49.916;14.536;2023-04-25T17:54:06;6.28;;;2.60;;
42846;SDS011;28495;49.916;14.536;2023-04-25T17:59:27;3.03;;;1.75;;
42846;SDS011;28495;49.916;14.536;2023-04-25T18:04:48;2.70;;;1.85;;
42846;SDS011;28495;49.916;14.536;2023-04-25T18:10:09;3.50;;;2.10;;
42846;SDS011;28495;49.916;14.536;2023-04-25T18:15:31;4.07;;;2.15;;
42846;SDS011;28495;49.916;14.536;2023-04-25T18:20:52;4.72;;;1.92;;
42846;SDS011;28495;49.916;14.536;2023-04-25T18:26:12;3.03;;;1.95;;
42846;SDS011;28495;49.916;14.536;2023-04-25T18:31:35;2.97;;;1.75;;
42846;SDS011;28495;49.916;14.536;2023-04-25T18:36:56;4.80;;;2.20;;
42846;SDS011;28495;49.916;14.536;2023-04-25T18:42:18;3.78;;;1.70;;
42846;SDS011;28495;49.916;14.536;2023-04-25T18:47:39;2.70;;;1.70;;
42846;SDS011;28495;49.916;14.536;2023-04-25T18:53:00;7.18;;;2.38;;
42846;SDS011;28495;49.916;14.536;2023-04-25T18:58:22;3.50;;;2.10;;
42846;SDS011;28495;49.916;14.536;2023-04-25T19:03:43;5.28;;;2.20;;
42846;SDS011;28495;49.916;14.536;2023-04-25T19:09:04;5.70;;;2.65;;
42846;SDS011;28495;49.916;14.536;2023-04-25T19:14:27;4.40;;;2.60;;
42846;SDS011;28495;49.916;14.536;2023-04-25T19:19:48;5.07;;;2.85;;
42846;SDS011;28495;49.916;14.536;2023-04-25T19:25:09;4.20;;;3.03;;
42846;SDS011;28495;49.916;14.536;2023-04-25T19:30:31;7.15;;;2.75;;
42846;SDS011;28495;49.916;14.536;2023-04-25T19:35:53;4.85;;;3.08;;
42846;SDS011;28495;49.916;14.536;2023-04-25T19:41:14;4.70;;;2.80;;
42846;SDS011;28495;49.916;14.536;2023-04-25T19:46:35;5.50;;;2.40;;
42846;SDS011;28495;49.916;14.536;2023-04-25T19:51:57;6.22;;;2.60;;
42846;SDS011;28495;49.916;14.536;2023-04-25T19:57:17;2.80;;;2.13;;
42846;SDS011;28495;49.916;14.536;2023-04-25T20:02:38;6.97;;;2.25;;
42846;SDS011;28495;49.916;14.536;2023-04-25T20:08:00;5.22;;;2.38;;
42846;SDS011;28495;49.916;14.536;2023-04-25T20:13:21;5.45;;;2.10;;
42846;SDS011;28495;49.916;14.536;2023-04-25T20:18:42;5.90;;;2.38;;
42846;SDS011;28495;49.916;14.536;2023-04-25T20:24:02;5.72;;;2.45;;
42846;SDS011;28495;49.916;14.536;2023-04-25T20:29:24;2.78;;;1.77;;
42846;SDS011;28495;49.916;14.536;2023-04-25T20:34:45;4.35;;;2.28;;
42846;SDS011;28495;49.916;14.536;2023-04-25T20:40:06;4.47;;;2.47;;
42846;SDS011;28495;49.916;14.536;2023-04-25T20:45:31;3.95;;;2.22;;
42846;SDS011;28495;49.916;14.536;2023-04-25T20:50:54;5.47;;;2.35;;
42846;SDS011;28495;49.916;14.536;2023-04-25T20:56:15;6.63;;;2.17;;
42846;SDS011;28495;49.916;14.536;2023-04-25T21:01:36;4.57;;;2.42;;
42846;SDS011;28495;49.916;14.536;2023-04-25T21:06:57;7.72;;;2.45;;
42846;SDS011;28495;49.916;14.536;2023-04-25T21:12:19;4.68;;;1.95;;
42846;SDS011;28495;49.916;14.536;2023-04-25T21:17:40;6.22;;;2.50;;
42846;SDS011;28495;49.916;14.536;2023-04-25T21:23:01;5.05;;;2.00;;
42846;SDS011;28495;49.916;14.536;2023-04-25T21:28:22;4.07;;;2.00;;
42846;SDS011;28495;49.916;14.536;2023-04-25T21:33:43;5.28;;;2.40;;
42846;SDS011;28495;49.916;14.536;2023-04-25T21:39:03;5.00;;;2.33;;
42846;SDS011;28495;49.916;14.536;2023-04-25T21:44:25;4.32;;;1.75;;
42846;SDS011;28495;49.916;14.536;2023-04-25T21:49:47;6.40;;;2.50;;
42846;SDS011;28495;49.916;14.536;2023-04-25T21:55:08;5.57;;;2.40;;
42846;SDS011;28495;49.916;14.536;2023-04-25T22:00:32;7.93;;;2.63;;
42846;SDS011;28495;49.916;14.536;2023-04-25T22:05:54;7.22;;;2.38;;
42846;SDS011;28495;49.916;14.536;2023-04-25T22:11:15;5.63;;;2.40;;
42846;SDS011;28495;49.916;14.536;2023-04-25T22:16:37;4.07;;;2.28;;
42846;SDS011;28495;49.916;14.536;2023-04-25T22:21:58;3.70;;;2.20;;
42846;SDS011;28495;49.916;14.536;2023-04-25T22:27:19;5.05;;;2.60;;
42846;SDS011;28495;49.916;14.536;2023-04-25T22:32:40;6.00;;;2.30;;
42846;SDS011;28495;49.916;14.536;2023-04-25T22:38:01;2.00;;;1.63;;
42846;SDS011;28495;49.916;14.536;2023-04-25T22:43:22;3.50;;;2.10;;
42846;SDS011;28495;49.916;14.536;2023-04-25T22:48:44;4.22;;;2.10;;
42846;SDS011;28495;49.916;14.536;2023-04-25T22:54:05;3.40;;;1.90;;
42846;SDS011;28495;49.916;14.536;2023-04-25T22:59:26;4.57;;;1.92;;
42846;SDS011;28495;49.916;14.536;2023-04-25T23:04:47;3.80;;;2.40;;
42846;SDS011;28495;49.916;14.536;2023-04-25T23:10:09;5.75;;;1.83;;
42846;SDS011;28495;49.916;14.536;2023-04-25T23:15:31;4.30;;;1.98;;
42846;SDS011;28495;49.916;14.536;2023-04-25T23:20:52;5.40;;;1.80;;
42846;SDS011;28495;49.916;14.536;2023-04-25T23:26:13;3.45;;;1.77;;
42846;SDS011;28495;49.916;14.536;2023-04-25T23:31:34;2.90;;;1.90;;
42846;SDS011;28495;49.916;14.536;2023-04-25T23:36:56;4.15;;;2.05;;
42846;SDS011;28495;49.916;14.536;2023-04-25T23:42:17;3.95;;;1.80;;
42846;SDS011;28495;49.916;14.536;2023-04-25T23:47:38;3.88;;;1.80;;
42846;SDS011;28495;49.916;14.536;2023-04-25T23:52:59;3.85;;;1.98;;
42846;SDS011;28495;49.916;14.536;2023-04-25T23:58:20;4.72;;;2.25;;
